West Storm Lake, Iowa
Current Conditions -  °F | °C
As of 2:35 AM on Friday 28 Nov 2014 (Local Time) from KSLB Reporting Station
Few Clouds Few Clouds  
Wind Chill: -4°   Ceiling: Unl
Heat Index: 12°   Visibility: 10mi
Dew Point:   Wind: 15mph
Humidity: 85%   Direction: 150°SSE
Pressure: 30.01"   Gusts: NA
Location:  42.674°N, 95.1635°W
Report Text: KSLB 280835Z AUTO 15013KT 10SM FEW110 M11/M13 A3001 RMK AO2
Loading
Personal Weather Stations






























Interactive Weather Map New forecast layout! Learn more

10-Day Weather Forecast

Advertisements
Track Severe Weather on mobile